createdAt,value
2023-05-18T00:01:14.586Z,8.20
2023-05-18T00:03:42.497Z,8.19
2023-05-18T00:06:10.485Z,8.15
2023-05-18T00:08:38.623Z,8.12
2023-05-18T00:11:06.909Z,8.02
2023-05-18T00:13:34.077Z,7.90
2023-05-18T00:16:01.391Z,7.87
2023-05-18T00:18:28.677Z,7.73
2023-05-18T00:20:59.131Z,7.69
2023-05-18T00:23:30.027Z,7.53
2023-05-18T00:25:57.524Z,7.49
2023-05-18T00:28:24.523Z,7.35
2023-05-18T00:30:51.498Z,7.14
2023-05-18T00:33:18.347Z,7.19
2023-05-18T00:35:45.580Z,7.06
2023-05-18T00:38:12.661Z,7.00
2023-05-18T00:40:39.939Z,6.85
2023-05-18T00:43:06.842Z,6.78
2023-05-18T00:45:34.063Z,6.70
2023-05-18T00:48:01.139Z,6.63
2023-05-18T00:50:28.544Z,6.52
2023-05-18T00:52:55.405Z,6.41
2023-05-18T00:55:22.540Z,6.51
2023-05-18T00:57:49.351Z,6.39
2023-05-18T01:00:16.535Z,6.27
2023-05-18T01:02:45.622Z,6.21
2023-05-18T01:05:13.456Z,6.22
2023-05-18T01:07:44.247Z,6.07
2023-05-18T01:10:14.201Z,6.04
2023-05-18T01:13:02.882Z,6.04
2023-05-18T01:15:35.845Z,5.90
2023-05-18T01:18:10.573Z,5.94
2023-05-18T01:20:46.614Z,5.81
2023-05-18T01:24:16.233Z,5.79
2023-05-18T01:26:47.014Z,5.64
2023-05-18T01:29:15.965Z,5.67
2023-05-18T01:31:42.852Z,5.64
2023-05-18T01:34:09.703Z,5.60
2023-05-18T01:36:36.711Z,5.56
2023-05-18T01:39:03.905Z,5.38
2023-05-18T01:41:36.498Z,5.49
2023-05-18T01:44:18.333Z,5.43
2023-05-18T01:46:54.768Z,5.41
2023-05-18T01:49:33.793Z,5.34
2023-05-18T01:52:14.927Z,5.25
2023-05-18T01:54:44.638Z,5.29
2023-05-18T01:57:11.832Z,5.07
2023-05-18T01:59:39.614Z,5.04
2023-05-18T02:02:06.983Z,5.14
2023-05-18T02:04:36.289Z,5.11
2023-05-18T02:07:03.564Z,4.99
2023-05-18T02:09:30.680Z,5.01
2023-05-18T02:11:57.552Z,4.85
2023-05-18T02:14:25.638Z,4.86
2023-05-18T02:16:53.402Z,4.91
2023-05-18T02:19:21.613Z,4.87
2023-05-18T02:21:48.965Z,4.64
2023-05-18T02:27:19.725Z,4.30
2023-05-18T02:29:49.900Z,4.59
2023-05-18T02:32:17.406Z,4.23
2023-05-18T02:37:50.844Z,4.49
2023-05-18T02:40:18.657Z,4.57
2023-05-18T02:50:12.192Z,3.80
2023-05-18T02:53:15.163Z,3.39
2023-05-18T02:56:02.806Z,4.14
2023-05-18T03:08:14.153Z,4.28
2023-05-18T03:10:46.741Z,3.14
2023-05-18T03:13:23.163Z,4.06
2023-05-18T03:16:17.364Z,4.17
2023-05-18T03:18:49.799Z,3.49
2023-05-18T03:21:24.743Z,3.92
2023-05-18T03:24:05.364Z,4.06
2023-05-18T03:29:48.870Z,4.00
2023-05-18T03:32:16.693Z,3.85
2023-05-18T03:35:19.257Z,3.98
2023-05-18T03:37:48.325Z,3.67
2023-05-18T03:41:16.668Z,3.99
2023-05-18T03:43:47.103Z,3.01
2023-05-18T03:46:25.250Z,3.83
2023-05-18T03:52:05.054Z,4.08
2023-05-18T03:58:17.514Z,4.11
2023-05-18T04:01:17.794Z,4.02
2023-05-18T04:03:54.655Z,3.86
2023-05-18T04:10:18.108Z,3.51
2023-05-18T04:13:25.950Z,4.49
2023-05-18T04:26:49.975Z,3.96
2023-05-18T04:30:07.904Z,4.14
2023-05-18T04:33:53.189Z,5.64
2023-05-18T04:40:25.651Z,6.73
2023-05-18T04:43:06.421Z,7.95
2023-05-18T04:49:08.336Z,10.33
2023-05-18T04:52:04.046Z,10.39
2023-05-18T04:54:41.821Z,10.71
2023-05-18T05:00:38.180Z,12.26
2023-05-18T05:03:29.724Z,13.07
2023-05-18T05:05:58.540Z,13.46
2023-05-18T05:08:48.036Z,13.48
2023-05-18T05:11:37.509Z,14.87
2023-05-18T05:14:05.562Z,14.93
2023-05-18T05:17:01.268Z,15.60
2023-05-18T05:20:27.653Z,15.25
2023-05-18T05:23:12.472Z,15.40
2023-05-18T05:26:12.081Z,16.13
2023-05-18T05:29:16.667Z,16.29
2023-05-18T05:32:00.041Z,16.26
2023-05-18T05:37:20.478Z,17.09
2023-05-18T05:39:57.228Z,16.06
2023-05-18T05:42:29.952Z,16.62
2023-05-18T05:48:13.375Z,17.07
